Time;durP1;ratioP1;P1;durP2;ratioP2;P2;SDS_P1;SDS_P2;PMS_P1;PMS_P2;Temp;Humidity;BMP_temperature;BMP_pressure;BME280_temperature;BME280_humidity;BME280_pressure;Samples;Min_cycle;Max_cycle;Signal;HPM_P1;HPM_P2
2021/12/10 00:00:41;;;;;;;7.35;3.05;;;15.20;46.40;;;;;;5095210;28;20024;-38
2021/12/10 00:03:15;;;;;;;6.88;2.55;;;15.20;46.20;;;;;;5095176;28;20024;-38
2021/12/10 00:05:50;;;;;;;4.63;2.70;;;15.10;46.20;;;;;;5095817;28;20095;-38
2021/12/10 00:08:16;;;;;;;6.38;2.70;;;15.10;46.20;;;;;;5096611;28;20016;-41
2021/12/10 00:10:43;;;;;;;7.47;2.72;;;15.10;46.30;;;;;;5096286;28;20074;-39
2021/12/10 00:13:09;;;;;;;5.88;2.90;;;15.10;46.30;;;;;;5096460;28;20493;-39
2021/12/10 00:15:36;;;;;;;6.07;2.65;;;15.10;46.30;;;;;;5096048;28;20027;-42
2021/12/10 00:18:04;;;;;;;5.22;2.67;;;15.10;46.20;;;;;;5078762;28;20028;-38
2021/12/10 00:20:32;;;;;;;5.43;2.53;;;15.10;46.20;;;;;;5079037;28;20015;-38
2021/12/10 00:23:00;;;;;;;5.15;3.00;;;15.00;46.20;;;;;;5096444;28;20478;-39
2021/12/10 00:25:37;;;;;;;5.32;2.60;;;15.10;46.20;;;;;;5096492;28;20044;-37
2021/12/10 00:28:25;;;;;;;9.95;3.30;;;15.00;46.20;;;;;;5079212;28;20015;-43
2021/12/10 00:31:20;;;;;;;7.25;2.75;;;15.00;46.30;;;;;;5096420;28;20032;-41
2021/12/10 00:34:43;;;;;;;6.55;2.83;;;15.00;46.20;;;;;;5099569;28;20008;-38
2021/12/10 00:37:12;;;;;;;7.03;2.80;;;15.10;46.20;;;;;;4997762;28;20065;-40
2021/12/10 00:39:44;;;;;;;8.18;2.80;;;15.00;46.10;;;;;;4980811;28;20118;-38
2021/12/10 00:42:13;;;;;;;7.70;3.05;;;15.00;46.10;;;;;;4996672;28;20037;-38
2021/12/10 00:44:39;;;;;;;4.68;2.58;;;15.00;46.10;;;;;;4996516;28;20020;-37
2021/12/10 00:47:06;;;;;;;5.72;2.63;;;15.00;46.20;;;;;;4979766;28;20038;-38
2021/12/10 00:49:32;;;;;;;5.65;2.50;;;15.00;46.10;;;;;;4979719;28;20406;-37
2021/12/10 00:51:58;;;;;;;6.38;2.55;;;14.90;46.10;;;;;;4996089;28;20037;-38
2021/12/10 00:54:24;;;;;;;5.30;2.72;;;15.00;46.20;;;;;;4995726;28;20521;-38
2021/12/10 00:56:50;;;;;;;5.85;2.58;;;15.00;46.10;;;;;;4979320;28;20513;-38
2021/12/10 00:59:17;;;;;;;6.18;2.70;;;15.00;45.90;;;;;;4979665;28;20773;-38
2021/12/10 01:01:43;;;;;;;6.45;2.95;;;15.00;45.90;;;;;;4979949;28;20026;-39
2021/12/10 01:04:20;;;;;;;6.80;2.70;;;15.00;45.80;;;;;;4980811;28;20037;-38
2021/12/10 01:06:47;;;;;;;5.63;2.53;;;15.00;45.90;;;;;;4996511;28;20038;-38
2021/12/10 01:09:19;;;;;;;5.75;2.60;;;15.00;46.00;;;;;;4996790;28;20026;-38
2021/12/10 01:11:51;;;;;;;5.60;2.67;;;14.90;46.00;;;;;;4996116;28;20517;-39
2021/12/10 01:14:26;;;;;;;7.43;2.80;;;15.00;46.00;;;;;;5097794;28;20012;-39
2021/12/10 01:25:23;;;;;;;5.15;2.67;;;15.00;45.90;;;;;;5098314;28;20039;-41
2021/12/10 01:27:49;;;;;;;4.95;2.60;;;14.90;45.80;;;;;;5081802;28;20016;-39
2021/12/10 01:30:23;;;;;;;5.40;2.28;;;14.90;45.90;;;;;;5097395;28;20534;-39
2021/12/10 01:33:06;;;;;;;7.65;2.92;;;14.90;45.90;;;;;;5097479;28;20020;-40
2021/12/10 01:35:34;;;;;;;4.30;2.30;;;14.90;45.90;;;;;;5098007;28;20027;-39
2021/12/10 01:38:00;;;;;;;6.50;2.35;;;14.90;45.90;;;;;;5097571;28;20004;-39
2021/12/10 01:40:27;;;;;;;7.18;2.63;;;14.90;46.00;;;;;;5080013;28;20016;-38
2021/12/10 01:42:59;;;;;;;4.65;2.40;;;14.90;46.00;;;;;;5078672;28;20062;-42
2021/12/10 01:45:28;;;;;;;6.35;2.35;;;14.90;46.00;;;;;;5097495;28;20019;-38
2021/12/10 01:48:06;;;;;;;5.05;2.22;;;14.80;46.00;;;;;;5097335;28;20074;-38
2021/12/10 01:50:33;;;;;;;4.47;2.15;;;14.90;45.90;;;;;;5079120;28;20020;-38
2021/12/10 01:53:01;;;;;;;5.40;2.50;;;14.90;45.80;;;;;;5097296;28;20601;-38
2021/12/10 01:55:28;;;;;;;5.93;2.30;;;14.90;45.90;;;;;;5079385;28;20500;-38
2021/12/10 01:57:53;;;;;;;7.10;2.55;;;14.80;45.80;;;;;;5079266;28;20454;-38
2021/12/10 02:00:21;;;;;;;4.32;2.10;;;14.90;45.90;;;;;;5097397;28;20016;-38
2021/12/10 02:02:47;;;;;;;5.32;2.38;;;14.80;45.80;;;;;;5097154;28;20462;-38
2021/12/10 02:05:13;;;;;;;5.32;2.35;;;14.80;45.80;;;;;;5061488;28;20028;-38
2021/12/10 02:07:39;;;;;;;4.78;2.40;;;14.90;45.80;;;;;;5097359;28;20020;-38
2021/12/10 02:10:06;;;;;;;4.93;2.17;;;14.80;45.80;;;;;;5079213;28;20501;-38
2021/12/10 02:12:32;;;;;;;4.82;2.08;;;14.80;45.80;;;;;;5078912;28;20039;-38
2021/12/10 02:15:01;;;;;;;4.50;2.05;;;14.80;45.80;;;;;;5078960;28;20020;-40
2021/12/10 02:17:38;;;;;;;4.07;2.00;;;14.90;45.80;;;;;;5062609;28;20036;-38
2021/12/10 02:20:27;;;;;;;5.10;2.00;;;14.80;45.80;;;;;;5098637;28;20004;-40
2021/12/10 02:22:53;;;;;;;4.00;2.15;;;14.80;45.90;;;;;;5082894;28;20026;-39
2021/12/10 02:25:25;;;;;;;3.97;2.10;;;14.80;45.80;;;;;;5098028;28;20530;-38
2021/12/10 02:27:51;;;;;;;5.68;2.17;;;14.80;45.90;;;;;;5097841;28;20046;-39
2021/12/10 02:30:19;;;;;;;3.67;2.05;;;14.80;45.90;;;;;;5097995;28;20514;-38
2021/12/10 02:32:47;;;;;;;5.38;2.05;;;14.80;46.00;;;;;;5079625;28;20539;-38
2021/12/10 02:35:14;;;;;;;5.25;1.90;;;14.80;46.00;;;;;;5079579;28;20028;-38
2021/12/10 02:37:40;;;;;;;4.45;2.20;;;14.80;46.00;;;;;;5063407;28;20076;-39
2021/12/10 02:40:07;;;;;;;4.93;2.05;;;14.80;46.00;;;;;;5098153;28;20482;-38
2021/12/10 02:42:33;;;;;;;3.85;2.17;;;14.80;46.00;;;;;;5098405;28;20012;-39
2021/12/10 02:44:59;;;;;;;4.95;2.08;;;14.80;46.00;;;;;;5081803;28;20020;-39
2021/12/10 02:47:25;;;;;;;3.97;1.98;;;14.70;46.00;;;;;;5099582;28;20023;-38
2021/12/10 02:49:51;;;;;;;4.75;1.83;;;14.80;46.00;;;;;;5098777;28;20020;-43
2021/12/10 02:52:19;;;;;;;2.85;1.70;;;14.80;46.00;;;;;;5063325;28;20099;-39
2021/12/10 02:54:45;;;;;;;2.90;1.70;;;14.80;46.60;;;;;;5096815;28;20032;-38
2021/12/10 02:57:14;;;;;;;4.10;1.90;;;14.70;46.00;;;;;;5078254;28;20095;-38
2021/12/10 02:59:40;;;;;;;5.10;1.98;;;14.70;46.10;;;;;;5095459;28;20004;-38
2021/12/10 03:02:11;;;;;;;3.13;1.80;;;14.70;46.00;;;;;;5077329;28;20463;-40
2021/12/10 03:04:37;;;;;;;5.07;1.75;;;14.70;46.00;;;;;;5094993;28;20016;-38
2021/12/10 03:07:08;;;;;;;4.63;1.65;;;14.70;46.00;;;;;;5060581;28;20012;-38
2021/12/10 03:09:34;;;;;;;;;;;14.70;46.00;;;;;;5095539;28;20523;-39
2021/12/10 03:12:00;;;;;;;4.57;1.70;;;14.70;46.00;;;;;;5095277;28;19949;-40
2021/12/10 03:14:35;;;;;;;4.05;1.63;;;14.70;46.10;;;;;;5095097;28;20024;-39
2021/12/10 03:17:03;;;;;;;3.88;1.88;;;14.70;46.20;;;;;;5094889;28;20040;-38
2021/12/10 03:19:29;;;;;;;4.57;1.60;;;14.70;46.20;;;;;;5095018;28;20012;-38
2021/12/10 03:21:55;;;;;;;3.83;1.70;;;14.70;46.20;;;;;;5076455;28;20553;-38
2021/12/10 03:24:23;;;;;;;4.20;1.80;;;14.70;46.20;;;;;;5094415;28;20540;-39
2021/12/10 03:26:53;;;;;;;3.55;1.63;;;14.70;46.30;;;;;;5094477;28;20051;-38
2021/12/10 03:29:22;;;;;;;3.58;1.90;;;14.70;46.20;;;;;;5094727;28;20035;-39
2021/12/10 03:31:51;;;;;;;3.38;1.52;;;14.70;46.20;;;;;;5077024;28;20547;-38
2021/12/10 03:34:17;;;;;;;3.45;1.67;;;14.70;46.20;;;;;;5094850;28;20498;-39
2021/12/10 03:36:46;;;;;;;3.10;1.50;;;14.70;46.10;;;;;;5095635;28;20035;-40
2021/12/10 03:39:14;;;;;;;3.38;1.55;;;14.60;46.20;;;;;;5060901;28;20527;-39
2021/12/10 03:41:40;;;;;;;2.33;1.40;;;14.60;46.30;;;;;;5077482;28;20038;-40
2021/12/10 03:44:06;;;;;;;3.15;1.52;;;14.70;46.20;;;;;;5095653;28;20482;-38
2021/12/10 03:46:32;;;;;;;3.38;1.67;;;14.60;46.30;;;;;;5095477;28;20024;-39
2021/12/10 03:49:03;;;;;;;3.33;1.60;;;14.60;46.30;;;;;;5095549;28;20038;-39
2021/12/10 03:51:28;;;;;;;2.80;1.40;;;14.60;46.30;;;;;;5078182;28;20020;-40
2021/12/10 03:53:54;;;;;;;2.30;1.48;;;14.60;46.40;;;;;;5095847;28;20015;-40
2021/12/10 03:56:22;;;;;;;3.55;1.40;;;14.60;46.40;;;;;;5077630;28;20070;-38
2021/12/10 03:58:47;;;;;;;3.67;1.50;;;14.60;46.40;;;;;;5077492;28;20036;-41
2021/12/10 04:01:15;;;;;;;3.42;1.52;;;14.60;46.50;;;;;;5076866;28;20483;-41
2021/12/10 04:03:46;;;;;;;1.90;1.27;;;14.60;46.40;;;;;;5094517;28;20095;-38
2021/12/10 04:06:12;;;;;;;2.53;1.30;;;14.60;46.20;;;;;;5095029;28;20411;-38
2021/12/10 04:08:37;;;;;;;3.17;1.40;;;14.60;46.30;;;;;;5097842;28;20051;-38
2021/12/10 04:11:04;;;;;;;4.55;1.48;;;14.60;46.90;;;;;;5097543;28;20013;-38
2021/12/10 04:13:29;;;;;;;2.63;1.40;;;14.60;46.50;;;;;;5098003;28;20028;-38
2021/12/10 04:15:55;;;;;;;3.08;1.48;;;14.60;46.60;;;;;;5097181;28;20106;-38
2021/12/10 04:18:21;;;;;;;2.88;1.55;;;14.60;46.50;;;;;;5097219;28;20044;-38
2021/12/10 04:20:47;;;;;;;3.05;1.30;;;14.60;46.50;;;;;;5097299;28;20009;-38
2021/12/10 04:23:16;;;;;;;3.25;1.23;;;14.60;46.50;;;;;;5079186;28;20058;-38
2021/12/10 04:25:41;;;;;;;2.90;1.40;;;14.60;46.40;;;;;;5079117;28;20028;-37
2021/12/10 04:28:10;;;;;;;1.77;1.20;;;14.60;46.40;;;;;;5078676;28;20013;-38
2021/12/10 04:30:39;;;;;;;2.55;1.10;;;14.70;46.30;;;;;;5078533;28;20024;-38
2021/12/10 04:33:06;;;;;;;2.85;1.27;;;14.70;46.20;;;;;;5096526;28;20012;-41
2021/12/10 04:35:32;;;;;;;2.75;1.13;;;14.80;46.10;;;;;;5096250;28;20478;-38
2021/12/10 04:37:58;;;;;;;1.90;1.23;;;14.80;46.00;;;;;;5096650;28;20024;-38
2021/12/10 04:40:24;;;;;;;3.25;1.40;;;14.80;46.00;;;;;;5096323;28;20467;-38
2021/12/10 04:42:50;;;;;;;2.65;1.20;;;14.90;45.80;;;;;;5096254;28;20062;-38
2021/12/10 04:45:18;;;;;;;2.80;1.23;;;15.00;45.60;;;;;;5096440;28;20038;-38
2021/12/10 04:47:44;;;;;;;3.80;1.45;;;15.00;45.40;;;;;;5078470;28;20026;-38
2021/12/10 04:50:10;;;;;;;2.30;1.10;;;15.10;45.20;;;;;;5078070;28;20490;-38
2021/12/10 04:52:36;;;;;;;2.20;1.20;;;15.20;44.90;;;;;;5078059;28;20020;-37
2021/12/10 04:55:06;;;;;;;2.28;1.00;;;15.20;44.80;;;;;;5095864;28;20056;-38
2021/12/10 04:57:32;;;;;;;2.22;1.17;;;15.40;44.50;;;;;;5096283;28;20024;-38
2021/12/10 04:59:57;;;;;;;1.85;1.20;;;15.40;44.20;;;;;;5096158;28;20344;-38
2021/12/10 05:02:23;;;;;;;2.60;1.10;;;15.50;44.10;;;;;;5078330;28;20020;-38
2021/12/10 05:04:50;;;;;;;2.65;1.05;;;15.60;43.90;;;;;;5095893;28;20028;-37
2021/12/10 05:07:16;;;;;;;1.65;0.90;;;15.60;43.80;;;;;;5095835;28;20459;-38
2021/12/10 05:09:42;;;;;;;1.50;0.98;;;15.70;43.70;;;;;;5095799;28;20506;-39
2021/12/10 05:12:08;;;;;;;2.00;1.00;;;15.70;43.50;;;;;;5095650;28;20093;-38
2021/12/10 05:14:34;;;;;;;2.10;1.02;;;15.80;43.40;;;;;;5077663;28;20024;-38
2021/12/10 05:17:04;;;;;;;1.88;0.93;;;15.90;43.20;;;;;;5073240;28;20048;-38
2021/12/10 05:19:31;;;;;;;1.83;0.93;;;15.90;43.10;;;;;;5073967;28;20060;-39
2021/12/10 05:21:59;;;;;;;1.60;0.90;;;15.90;43.00;;;;;;5074237;28;20036;-38
2021/12/10 05:24:25;;;;;;;2.00;0.95;;;16.00;43.00;;;;;;5075375;28;20012;-38
2021/12/10 05:26:51;;;;;;;2.05;1.10;;;16.00;42.80;;;;;;5075116;28;20503;-38
2021/12/10 05:29:17;;;;;;;2.53;1.10;;;16.10;42.70;;;;;;5074142;28;20027;-38
2021/12/10 05:31:49;;;;;;;1.70;0.80;;;16.20;42.70;;;;;;5075825;28;20012;-38
2021/12/10 05:34:15;;;;;;;2.40;0.80;;;16.20;42.40;;;;;;5076499;28;20044;-38
2021/12/10 05:36:41;;;;;;;1.98;0.90;;;16.30;42.20;;;;;;5076192;28;20510;-40
2021/12/10 05:39:08;;;;;;;2.28;1.05;;;16.30;42.10;;;;;;5075656;28;20490;-38
2021/12/10 05:41:34;;;;;;;1.48;0.90;;;16.40;42.00;;;;;;5075857;28;20013;-38
2021/12/10 05:44:00;;;;;;;1.75;0.90;;;16.50;41.90;;;;;;5076178;28;20020;-39
2021/12/10 05:46:27;;;;;;;2.28;0.90;;;16.50;41.70;;;;;;5076285;28;20020;-39
2021/12/10 05:48:53;;;;;;;2.47;0.73;;;16.50;41.70;;;;;;5076126;28;20021;-38
2021/12/10 05:51:19;;;;;;;2.38;0.80;;;16.60;41.60;;;;;;5074187;28;20021;-38
2021/12/10 05:53:45;;;;;;;0.85;0.60;;;16.60;41.40;;;;;;5075547;28;20017;-38
2021/12/10 05:56:11;;;;;;;2.42;1.02;;;16.70;41.40;;;;;;5074327;28;20056;-39
2021/12/10 05:58:37;;;;;;;1.27;0.82;;;16.70;41.30;;;;;;5075043;28;20017;-38
2021/12/10 06:01:10;;;;;;;1.73;0.80;;;16.80;41.20;;;;;;5075844;28;20012;-39
2021/12/10 06:03:37;;;;;;;1.48;0.65;;;16.80;41.10;;;;;;5075685;28;20035;-40
2021/12/10 06:06:04;;;;;;;1.00;0.70;;;16.90;40.90;;;;;;5075766;28;20009;-38
2021/12/10 06:08:30;;;;;;;1.77;0.75;;;17.00;40.70;;;;;;5074512;28;20021;-38
2021/12/10 06:11:00;;;;;;;1.58;0.70;;;17.00;40.60;;;;;;5076047;28;20023;-38
2021/12/10 06:13:27;;;;;;;;;;;17.00;40.60;;;;;;5076915;28;20036;-38
2021/12/10 06:15:53;;;;;;;1.20;0.60;;;17.10;40.40;;;;;;5078631;28;19915;-40
2021/12/10 06:18:19;;;;;;;1.65;0.75;;;17.10;40.30;;;;;;5078788;28;20028;-38
2021/12/10 06:20:47;;;;;;;1.15;0.60;;;17.10;40.30;;;;;;5079788;28;20020;-38
2021/12/10 06:23:13;;;;;;;1.15;0.70;;;17.20;40.20;;;;;;5097823;28;20079;-38
2021/12/10 06:25:39;;;;;;;1.60;0.70;;;17.30;40.10;;;;;;5097189;28;20423;-38
2021/12/10 06:28:05;;;;;;;1.80;0.80;;;17.30;40.00;;;;;;5078004;28;20035;-38
2021/12/10 06:30:32;;;;;;;1.45;0.60;;;17.30;39.90;;;;;;5078473;28;20055;-39
2021/12/10 06:33:00;;;;;;;1.48;0.70;;;17.40;39.90;;;;;;5078826;28;20020;-40
2021/12/10 06:35:28;;;;;;;0.63;0.52;;;17.40;39.80;;;;;;5078005;28;20026;-39
2021/12/10 06:37:54;;;;;;;1.27;0.60;;;17.40;39.70;;;;;;5078828;28;20040;-38
2021/12/10 06:40:22;;;;;;;1.08;0.70;;;17.50;39.70;;;;;;5096615;28;20027;-41
2021/12/10 06:42:49;;;;;;;0.93;0.50;;;17.50;39.60;;;;;;5096041;28;20011;-37
2021/12/10 06:45:17;;;;;;;1.65;0.50;;;17.50;39.50;;;;;;5094928;28;20019;-38
2021/12/10 06:47:47;;;;;;;1.67;0.60;;;17.60;39.50;;;;;;5094972;28;20020;-39
2021/12/10 06:50:17;;;;;;;;;;;17.60;39.40;;;;;;5094611;28;20575;-38
2021/12/10 06:52:43;;;;;;;1.15;0.70;;;17.70;39.30;;;;;;5094349;28;20323;-37
2021/12/10 06:55:09;;;;;;;1.50;0.60;;;17.70;39.20;;;;;;5094439;28;20054;-37
2021/12/10 06:57:37;;;;;;;0.98;0.60;;;17.70;39.10;;;;;;5093555;28;20036;-38
2021/12/10 07:00:25;;;;;;;1.95;0.70;;;17.70;39.00;;;;;;5060040;28;20012;-38
2021/12/10 07:02:51;;;;;;;1.27;0.65;;;17.80;39.10;;;;;;5093285;28;20482;-38
2021/12/10 07:05:17;;;;;;;2.22;0.80;;;17.90;38.90;;;;;;5074970;28;20051;-38
2021/12/10 07:07:43;;;;;;;1.58;0.52;;;17.90;38.90;;;;;;5092810;28;20042;-37
2021/12/10 07:10:09;;;;;;;1.38;0.52;;;17.90;38.90;;;;;;5092828;28;20100;-37
2021/12/10 07:12:37;;;;;;;2.22;0.52;;;17.90;38.90;;;;;;5093027;28;20112;-38
2021/12/10 07:15:04;;;;;;;1.27;0.47;;;17.90;38.80;;;;;;5092284;28;20023;-44
2021/12/10 07:17:30;;;;;;;1.27;0.55;;;17.90;38.70;;;;;;5092550;28;20055;-39
2021/12/10 07:19:59;;;;;;;1.80;0.45;;;17.90;38.60;;;;;;5092391;28;20008;-38
2021/12/10 07:22:27;;;;;;;4.38;0.70;;;18.00;38.70;;;;;;5074239;28;20153;-38
2021/12/10 07:24:53;;;;;;;1.20;0.60;;;18.00;38.60;;;;;;5092569;28;20024;-38
2021/12/10 07:27:19;;;;;;;1.52;0.60;;;18.00;38.60;;;;;;5074695;28;20434;-38
2021/12/10 07:29:47;;;;;;;3.95;0.75;;;18.00;38.50;;;;;;5057907;28;20008;-38
2021/12/10 07:32:12;;;;;;;1.60;0.57;;;18.10;38.50;;;;;;5092969;28;20024;-38
2021/12/10 07:34:38;;;;;;;2.33;0.60;;;18.20;38.60;;;;;;5092920;28;20344;-39
2021/12/10 07:37:07;;;;;;;3.50;0.50;;;18.20;38.60;;;;;;5092819;28;20039;-38
2021/12/10 07:39:33;;;;;;;2.72;0.50;;;18.20;38.70;;;;;;5092989;28;20012;-38
2021/12/10 07:42:01;;;;;;;3.53;0.68;;;18.20;38.60;;;;;;5091992;28;20023;-38
2021/12/10 07:44:27;;;;;;;2.15;0.50;;;18.20;38.60;;;;;;5075015;28;20008;-39
2021/12/10 07:46:55;;;;;;;2.60;0.57;;;18.20;38.70;;;;;;5092817;28;20020;-37
2021/12/10 07:49:28;;;;;;;3.10;1.00;;;18.30;38.80;;;;;;5058098;28;20482;-38
2021/12/10 07:51:54;;;;;;;2.53;0.55;;;18.30;38.90;;;;;;5058715;28;20097;-38
2021/12/10 07:54:23;;;;;;;0.95;0.50;;;18.20;38.90;;;;;;5093012;28;20032;-38
2021/12/10 07:56:49;;;;;;;0.98;0.50;;;18.30;39.10;;;;;;5092503;28;20049;-41
2021/12/10 07:59:14;;;;;;;2.10;0.60;;;18.30;39.10;;;;;;5057871;28;20503;-38
2021/12/10 08:01:40;;;;;;;4.53;0.70;;;18.30;39.10;;;;;;5092746;28;20031;-38
2021/12/10 08:04:06;;;;;;;2.75;0.50;;;18.30;39.10;;;;;;5092629;28;20091;-38
2021/12/10 08:06:35;;;;;;;1.75;0.63;;;18.40;39.10;;;;;;5093136;28;20020;-37
2021/12/10 08:09:06;;;;;;;1.85;0.57;;;18.40;39.10;;;;;;5093316;28;20047;-38
2021/12/10 08:11:31;;;;;;;2.50;0.55;;;18.40;39.10;;;;;;5092824;28;20504;-37
2021/12/10 08:13:57;;;;;;;2.53;0.65;;;18.40;39.10;;;;;;5092840;28;20103;-38
2021/12/10 08:16:25;;;;;;;4.57;0.50;;;18.40;39.10;;;;;;5071110;28;20506;-38
2021/12/10 08:18:51;;;;;;;4.65;0.50;;;18.40;39.10;;;;;;5071657;28;20032;-38
2021/12/10 08:21:17;;;;;;;6.20;1.23;;;18.40;39.00;;;;;;5071481;28;20443;-38
2021/12/10 08:23:43;;;;;;;3.42;0.45;;;18.50;38.90;;;;;;5071623;28;20088;-38
2021/12/10 08:26:09;;;;;;;2.03;0.45;;;18.50;38.90;;;;;;5071041;28;20540;-38
2021/12/10 08:28:35;;;;;;;1.70;0.50;;;18.50;38.90;;;;;;5071414;28;20012;-38
2021/12/10 08:31:02;;;;;;;1.33;0.50;;;18.50;38.90;;;;;;5072142;28;20025;-38
2021/12/10 08:33:28;;;;;;;1.13;0.60;;;18.50;38.90;;;;;;5071728;28;20020;-38
2021/12/10 08:35:58;;;;;;;1.67;0.50;;;18.60;38.90;;;;;;5071808;28;20047;-40
2021/12/10 08:38:24;;;;;;;;;;;18.50;38.80;;;;;;5071118;28;20005;-39
2021/12/10 08:40:57;;;;;;;2.53;0.40;;;18.60;38.90;;;;;;5071950;28;19904;-37
2021/12/10 08:43:24;;;;;;;0.50;0.40;;;18.60;38.80;;;;;;5070889;28;20040;-39
2021/12/10 08:45:52;;;;;;;1.35;0.50;;;18.60;38.80;;;;;;5071822;28;20471;-38
2021/12/10 08:48:25;;;;;;;0.65;0.30;;;18.60;38.70;;;;;;5071987;28;20031;-38
2021/12/10 08:50:51;;;;;;;0.68;0.40;;;18.70;38.70;;;;;;5070599;28;20038;-36
2021/12/10 08:53:17;;;;;;;1.00;0.40;;;18.70;38.60;;;;;;5073372;28;20479;-38
2021/12/10 08:55:45;;;;;;;1.58;0.55;;;18.70;38.60;;;;;;5056933;28;20495;-37
2021/12/10 08:58:11;;;;;;;0.60;0.35;;;18.70;38.60;;;;;;5075713;28;20027;-37
2021/12/10 09:00:38;;;;;;;1.38;0.50;;;18.70;38.50;;;;;;5075244;28;20023;-37
2021/12/10 09:03:04;;;;;;;0.63;0.40;;;18.80;38.50;;;;;;5075795;28;20013;-38
2021/12/10 09:05:33;;;;;;;1.08;0.40;;;18.80;38.40;;;;;;5073672;28;20421;-37
2021/12/10 09:08:01;;;;;;;3.70;0.50;;;18.80;38.30;;;;;;5075404;28;20074;-39
2021/12/10 09:10:31;;;;;;;2.67;0.50;;;18.80;38.30;;;;;;5075216;28;20531;-38
2021/12/10 09:12:57;;;;;;;2.45;0.55;;;18.80;38.20;;;;;;5075276;28;20028;-41
2021/12/10 09:15:24;;;;;;;2.47;0.50;;;18.90;38.10;;;;;;5057055;28;20029;-38
2021/12/10 09:17:50;;;;;;;3.33;0.40;;;18.90;38.10;;;;;;5073643;28;20047;-38
2021/12/10 09:20:21;;;;;;;0.50;0.40;;;18.90;38.10;;;;;;5075070;28;20044;-38
2021/12/10 09:22:48;;;;;;;2.55;0.40;;;18.90;38.10;;;;;;5075012;28;20035;-37
2021/12/10 09:25:15;;;;;;;1.70;0.45;;;18.90;37.90;;;;;;5073631;28;20016;-38
2021/12/10 09:27:42;;;;;;;1.55;0.40;;;19.00;37.90;;;;;;5058041;28;20047;-39
2021/12/10 09:30:12;;;;;;;1.48;0.50;;;19.00;37.80;;;;;;5075629;28;20035;-38
2021/12/10 09:32:38;;;;;;;0.35;0.30;;;19.00;37.70;;;;;;5074462;28;20025;-37
2021/12/10 09:35:06;;;;;;;1.38;0.50;;;19.00;37.70;;;;;;5073858;28;20027;-38
2021/12/10 09:37:33;;;;;;;1.08;0.40;;;19.00;37.70;;;;;;5075678;28;20048;-38
2021/12/10 09:39:59;;;;;;;1.23;0.22;;;19.00;37.60;;;;;;5075535;28;20032;-38
2021/12/10 09:42:25;;;;;;;1.02;0.43;;;19.00;37.50;;;;;;5073729;28;20463;-38
2021/12/10 09:44:52;;;;;;;0.57;0.32;;;19.10;37.50;;;;;;5075201;28;20025;-38
2021/12/10 09:47:18;;;;;;;2.17;0.50;;;19.10;37.40;;;;;;5075866;28;20115;-38
2021/12/10 09:49:46;;;;;;;0.47;0.30;;;19.10;37.30;;;;;;5074132;28;20013;-38
2021/12/10 09:52:12;;;;;;;0.68;0.32;;;19.20;37.30;;;;;;5075812;28;20025;-39
2021/12/10 09:54:39;;;;;;;1.13;0.40;;;19.20;37.30;;;;;;5074302;28;20017;-37
2021/12/10 09:57:12;;;;;;;0.98;0.60;;;19.10;37.20;;;;;;5073824;28;20044;-37
2021/12/10 09:59:39;;;;;;;0.82;0.30;;;19.10;37.20;;;;;;5073833;28;20032;-38
2021/12/10 10:02:05;;;;;;;1.83;0.40;;;19.20;37.10;;;;;;5074502;28;20005;-38
2021/12/10 10:04:35;;;;;;;1.23;0.40;;;19.20;37.10;;;;;;5072790;28;20466;-37
2021/12/10 10:07:11;;;;;;;1.48;0.82;;;19.20;37.10;;;;;;5075173;28;20024;-38
2021/12/10 10:09:39;;;;;;;3.75;0.55;;;19.20;37.00;;;;;;5075351;28;20009;-40
2021/12/10 10:12:11;;;;;;;0.88;0.50;;;19.30;36.90;;;;;;5074776;28;20095;-38
2021/12/10 10:14:38;;;;;;;1.30;0.45;;;19.30;36.80;;;;;;5073827;28;20035;-38
2021/12/10 10:17:04;;;;;;;0.52;0.40;;;19.30;36.80;;;;;;5086740;28;20116;-37
2021/12/10 10:19:30;;;;;;;3.65;0.50;;;19.30;36.80;;;;;;5095232;28;20024;-39
2021/12/10 10:21:58;;;;;;;0.85;0.35;;;19.30;36.70;;;;;;5077825;28;20048;-39
2021/12/10 10:24:26;;;;;;;0.73;0.50;;;19.30;36.70;;;;;;5094975;28;20382;-41
2021/12/10 10:26:59;;;;;;;0.50;0.30;;;19.30;36.70;;;;;;5095789;28;20028;-38
2021/12/10 10:29:27;;;;;;;2.17;0.45;;;19.30;36.70;;;;;;5077780;28;20023;-39
2021/12/10 10:31:56;;;;;;;1.17;0.40;;;19.30;36.50;;;;;;5094672;28;20095;-40
2021/12/10 10:34:22;;;;;;;1.05;0.50;;;19.40;36.50;;;;;;5095003;28;20024;-38
2021/12/10 10:36:48;;;;;;;1.08;0.60;;;19.40;36.50;;;;;;5076865;28;20038;-38
2021/12/10 10:39:18;;;;;;;1.27;0.30;;;19.30;36.30;;;;;;5095064;28;20019;-39
2021/12/10 10:41:47;;;;;;;1.83;0.47;;;19.40;36.30;;;;;;5095306;28;20016;-38
2021/12/10 10:44:12;;;;;;;2.28;0.50;;;19.40;36.30;;;;;;5076482;28;20012;-39
2021/12/10 10:46:38;;;;;;;1.42;0.60;;;19.40;36.30;;;;;;5095279;28;20008;-38
2021/12/10 10:49:04;;;;;;;2.58;0.60;;;19.50;36.20;;;;;;5094338;28;20016;-39
2021/12/10 10:51:36;;;;;;;1.48;0.52;;;19.50;36.10;;;;;;5094135;28;20016;-41
2021/12/10 10:54:04;;;;;;;3.13;0.57;;;19.50;36.10;;;;;;5094724;28;20466;-40
2021/12/10 10:56:37;;;;;;;0.95;0.40;;;19.50;36.00;;;;;;5094953;28;20028;-39
2021/12/10 10:59:32;;;;;;;1.58;0.57;;;19.50;36.00;;;;;;5094024;28;20087;-39
2021/12/10 11:02:02;;;;;;;1.20;0.60;;;19.40;36.00;;;;;;5091922;28;20401;-38
2021/12/10 11:04:30;;;;;;;2.35;0.50;;;19.50;36.00;;;;;;5094336;28;20008;-39
2021/12/10 11:07:06;;;;;;;1.67;0.52;;;19.50;35.90;;;;;;5095125;28;20016;-39
2021/12/10 11:09:33;;;;;;;1.98;0.50;;;19.50;35.90;;;;;;5079038;28;20024;-40
2021/12/10 11:12:06;;;;;;;1.17;0.50;;;19.50;35.80;;;;;;5078127;28;20050;-39
2021/12/10 11:14:39;;;;;;;2.03;0.60;;;19.50;35.70;;;;;;5096444;28;20016;-38
2021/12/10 11:17:16;;;;;;;1.48;0.65;;;19.60;35.70;;;;;;5096017;28;20059;-40
2021/12/10 11:19:57;;;;;;;1.40;0.50;;;19.60;35.70;;;;;;5097224;28;20083;-43
2021/12/10 11:22:24;;;;;;;1.60;0.60;;;19.60;35.70;;;;;;5097409;28;20005;-40
2021/12/10 11:25:02;;;;;;;3.00;0.50;;;19.60;35.70;;;;;;5098195;28;20039;-41
2021/12/10 11:27:28;;;;;;;2.63;0.52;;;19.60;35.60;;;;;;5097756;28;20069;-38
2021/12/10 11:30:05;;;;;;;1.75;0.60;;;19.60;35.60;;;;;;5098876;28;20021;-40
2021/12/10 11:32:40;;;;;;;0.93;0.47;;;19.60;35.50;;;;;;5098046;28;20034;-41
2021/12/10 11:35:23;;;;;;;0.90;0.50;;;19.70;35.50;;;;;;5097217;28;20095;-42
2021/12/10 11:37:59;;;;;;;0.68;0.50;;;19.60;35.40;;;;;;5095651;28;20020;-39
2021/12/10 11:40:31;;;;;;;2.85;0.60;;;19.60;35.30;;;;;;5095272;28;20008;-38
2021/12/10 11:43:03;;;;;;;2.83;0.60;;;19.70;35.40;;;;;;5095111;28;20008;-38
2021/12/10 11:45:43;;;;;;;1.77;0.60;;;19.60;35.30;;;;;;5077880;28;20048;-40
2021/12/10 11:48:12;;;;;;;2.83;0.80;;;19.60;35.30;;;;;;5095842;28;20013;-41
2021/12/10 11:51:01;;;;;;;1.70;0.80;;;19.60;35.30;;;;;;5095806;28;20017;-40
2021/12/10 11:53:33;;;;;;;2.42;0.60;;;19.60;35.20;;;;;;5079690;28;20097;-38
2021/12/10 11:56:40;;;;;;;1.60;0.60;;;19.60;35.20;;;;;;5078408;28;20020;-39
2021/12/10 11:59:12;;;;;;;1.20;0.52;;;19.60;35.10;;;;;;5082473;28;20021;-39
2021/12/10 12:01:56;;;;;;;2.22;0.70;;;19.60;35.10;;;;;;5096688;28;20023;-40
2021/12/10 12:04:24;;;;;;;2.13;0.80;;;19.60;35.10;;;;;;5096370;28;20008;-39
2021/12/10 12:07:18;;;;;;;1.75;0.80;;;19.60;35.00;;;;;;5094301;28;20095;-38
2021/12/10 12:09:49;;;;;;;1.33;0.60;;;19.70;35.00;;;;;;5093536;28;20024;-38
2021/12/10 12:12:18;;;;;;;0.90;0.63;;;19.60;35.00;;;;;;5076053;28;20016;-38
2021/12/10 12:14:51;;;;;;;1.48;0.60;;;19.70;35.00;;;;;;5075276;28;20016;-38
2021/12/10 12:17:37;;;;;;;1.15;0.60;;;19.60;34.80;;;;;;5076476;28;20498;-38
2021/12/10 12:20:28;;;;;;;1.35;0.90;;;19.70;34.80;;;;;;5093786;28;20019;-40
2021/12/10 12:25:48;;;;;;;1.70;0.85;;;19.70;34.70;;;;;;5080639;28;20027;-37
2021/12/10 12:28:16;;;;;;;1.30;0.50;;;19.70;34.70;;;;;;5080283;28;20043;-39
2021/12/10 12:30:56;;;;;;;1.25;0.70;;;19.80;34.60;;;;;;5080266;28;20106;-39
2021/12/10 12:33:24;;;;;;;2.08;0.70;;;19.80;34.50;;;;;;5098124;28;20065;-39
2021/12/10 12:35:51;;;;;;;1.30;0.70;;;19.80;34.50;;;;;;5098451;28;20024;-37
2021/12/10 12:38:29;;;;;;;2.42;0.80;;;19.80;34.30;;;;;;5097645;28;20024;-38
2021/12/10 12:41:18;;;;;;;1.67;0.70;;;19.80;34.30;;;;;;5080731;28;20099;-38
2021/12/10 12:43:46;;;;;;;1.73;0.70;;;19.80;34.30;;;;;;5098158;28;20016;-38
2021/12/10 12:46:12;;;;;;;1.08;0.70;;;19.80;34.20;;;;;;5098258;28;20058;-39
2021/12/10 12:48:53;;;;;;;3.33;1.15;;;19.80;34.10;;;;;;5079973;28;20368;-39
2021/12/10 12:51:21;;;;;;;2.08;0.70;;;19.80;34.20;;;;;;5079644;28;20019;-40
2021/12/10 12:53:48;;;;;;;1.20;0.70;;;19.70;34.20;;;;;;5098396;28;20040;-38
2021/12/10 12:56:14;;;;;;;1.98;0.70;;;19.70;34.20;;;;;;5098979;28;20020;-40
2021/12/10 12:59:02;;;;;;;1.23;0.80;;;19.80;34.20;;;;;;5079898;28;20047;-40
2021/12/10 13:01:50;;;;;;;0.82;0.70;;;19.80;34.10;;;;;;5099020;28;20013;-40
2021/12/10 13:04:18;;;;;;;3.03;0.70;;;19.80;34.00;;;;;;5098568;28;20467;-41
2021/12/10 13:06:55;;;;;;;3.65;0.90;;;19.80;34.00;;;;;;5081165;28;20016;-38
2021/12/10 13:09:43;;;;;;;1.08;0.82;;;19.80;34.00;;;;;;5098182;28;20478;-40